Terminal Aerodrome Forecast
Issued by NWS

Home | Current Version | Previous Version | Text Only | Print | Product List | Glossary On
Versions: 1 2 3 4 5 6 7 8 9 10 11 12 13 14 15 16 17 18 19 20 21 22 23 24 25 26 27 28 29 30 31 32 33 34 35 36 37 38 39 40 41 42 43 44 45 46 47 48 49 50
000
FTUS41 KCTP 251304 AAB
TAFUNV
TAF AMD
KUNV 251304Z 2513/2612 09004KT 2SM +RA BR BKN015 OVC021
      TEMPO 2513/2514 5SM -RA BKN023 OVC035
     FM251400 10007KT P6SM -RA BKN023 OVC040
     FM252000 21004KT P6SM BKN035
     FM252300 23004KT P6SM VCSH BKN035
     FM260300 27005KT P6SM VCSH OVC025=

USA.gov is the U.S. government's official web portal to all federal, state and local government web resources and services.